PWSweather.com
Personal Weather Stations
Station Observations
GEELONGWX1
Bell Post Hill, GeelongAU

Bell Post HillGeelongAU

Lat: -38.101, Lon: 144.326

Elevation: 204

Station Type: Davis Vantage Pro2

http://www.geelongweather.com

High Low Average
Temperature 54.6°F12.6°C 39.0°F3.9°C 45.2°F7.3°C
Dew Point 49.2°F9.6°C 36.6°F2.6°C 42.2°F5.7°C
Winds 8.1 mph 13.0 kmh Calm Calm 2.0 mph SW3.2 kmh SW
Wind Gusts 12.7 mph20.4 kmh -- 3.0 mph4.8 kmh
Humidity 94% 79% 89%
Pressure 30.30 in1026.1 mb 30.22 in1023.4 mb -
Precipitation 0.07 in1.8 mm - -
Hour Temp Dew Point Humidity Winds Wind Gusts Pressure Precip Precip Rate Daily Precip Total
12:00 AM 41.0°F5.0°C 38.3°F3.5°C 90% 1.2 mph W1.9 kmh W 1.2 mph1.9 kmh 30.28 in1025.4 mb - 0.00 in0.0 mm 0.00 in0.0 mm
12:10 AM 40.9°F4.9°C 38.2°F3.4°C 90% 1.2 mph WNW1.9 kmh WNW 2.3 mph3.7 kmh 30.28 in1025.4 mb - 0.00 in0.0 mm 0.00 in0.0 mm
12:20 AM 40.7°F4.8°C 38.0°F3.3°C 90% 1.2 mph WNW1.9 kmh WNW 1.2 mph1.9 kmh 30.28 in1025.4 mb - 0.00 in0.0 mm 0.00 in0.0 mm
12:30 AM 40.6°F4.8°C 37.9°F3.3°C 90% 1.2 mph WNW1.9 kmh WNW 1.2 mph1.9 kmh 30.28 in1025.4 mb - 0.00 in0.0 mm 0.00 in0.0 mm
12:40 AM 40.4°F4.7°C 37.7°F3.2°C 90% Calm Calm -- 30.28 in1025.4 mb - 0.00 in0.0 mm 0.00 in0.0 mm
12:50 AM 40.4°F4.7°C 37.7°F3.2°C 90% 1.2 mph WNW1.9 kmh WNW 1.2 mph1.9 kmh 30.28 in1025.4 mb - 0.00 in0.0 mm 0.00 in0.0 mm
01:00 AM 40.3°F4.6°C 37.6°F3.1°C 90% Calm Calm 2.3 mph3.7 kmh 30.28 in1025.4 mb - 0.00 in0.0 mm 0.00 in0.0 mm
01:10 AM 40.3°F4.6°C 37.9°F3.3°C 91% Calm Calm -- 30.28 in1025.4 mb - 0.00 in0.0 mm 0.00 in0.0 mm
01:20 AM 40.2°F4.6°C 37.8°F3.2°C 91% Calm Calm -- 30.28 in1025.4 mb - 0.00 in0.0 mm 0.00 in0.0 mm
01:30 AM 40.2°F4.6°C 37.8°F3.2°C 91% Calm Calm 1.2 mph1.9 kmh 30.28 in1025.4 mb - 0.00 in0.0 mm 0.00 in0.0 mm
01:40 AM 40.2°F4.6°C 37.8°F3.2°C 91% 1.2 mph WNW1.9 kmh WNW 2.3 mph3.7 kmh 30.28 in1025.4 mb - 0.00 in0.0 mm 0.00 in0.0 mm
01:50 AM 40.2°F4.6°C 37.8°F3.2°C 91% Calm Calm 1.2 mph1.9 kmh 30.28 in1025.4 mb - 0.00 in0.0 mm 0.00 in0.0 mm
02:00 AM 40.2°F4.6°C 37.8°F3.2°C 91% 1.2 mph WNW1.9 kmh WNW 1.2 mph1.9 kmh 30.28 in1025.4 mb - 0.00 in0.0 mm 0.00 in0.0 mm
02:10 AM 40.2°F4.6°C 37.8°F3.2°C 91% Calm Calm -- 30.28 in1025.4 mb - 0.00 in0.0 mm 0.00 in0.0 mm
02:20 AM 40.3°F4.6°C 37.9°F3.3°C 91% 1.2 mph W1.9 kmh W 2.3 mph3.7 kmh 30.28 in1025.4 mb - 0.00 in0.0 mm 0.00 in0.0 mm
02:30 AM 40.4°F4.7°C 38.0°F3.3°C 91% 1.2 mph W1.9 kmh W 2.3 mph3.7 kmh 30.28 in1025.4 mb - 0.00 in0.0 mm 0.00 in0.0 mm
02:40 AM 40.5°F4.7°C 38.1°F3.4°C 91% 2.3 mph W3.7 kmh W 2.3 mph3.7 kmh 30.28 in1025.4 mb - 0.00 in0.0 mm 0.00 in0.0 mm
02:50 AM 40.6°F4.8°C 38.2°F3.4°C 91% 1.2 mph W1.9 kmh W 3.5 mph5.6 kmh 30.28 in1025.4 mb - 0.00 in0.0 mm 0.00 in0.0 mm
03:00 AM 40.6°F4.8°C 38.2°F3.4°C 91% 2.3 mph W3.7 kmh W 3.5 mph5.6 kmh 30.28 in1025.4 mb - 0.00 in0.0 mm 0.00 in0.0 mm
03:10 AM 40.7°F4.8°C 38.3°F3.5°C 91% 1.2 mph W1.9 kmh W 2.3 mph3.7 kmh 30.28 in1025.4 mb - 0.00 in0.0 mm 0.00 in0.0 mm
03:20 AM 40.8°F4.9°C 38.4°F3.6°C 91% 2.3 mph W3.7 kmh W 3.5 mph5.6 kmh 30.28 in1025.4 mb - 0.00 in0.0 mm 0.00 in0.0 mm
03:30 AM 40.8°F4.9°C 38.4°F3.6°C 91% 3.5 mph SW5.6 kmh SW 3.5 mph5.6 kmh 30.28 in1025.4 mb - 0.00 in0.0 mm 0.00 in0.0 mm
03:40 AM 40.9°F4.9°C 38.5°F3.6°C 91% 2.3 mph SSW3.7 kmh SSW 3.5 mph5.6 kmh 30.28 in1025.4 mb - 0.00 in0.0 mm 0.00 in0.0 mm
03:50 AM 40.9°F4.9°C 38.4°F3.6°C 91% 3.5 mph SSW5.6 kmh SSW 3.5 mph5.6 kmh 30.28 in1025.4 mb - 0.00 in0.0 mm 0.00 in0.0 mm
04:00 AM 40.7°F4.8°C 38.3°F3.5°C 91% 2.3 mph SSW3.7 kmh SSW 3.5 mph5.6 kmh 30.27 in1025.1 mb - 0.00 in0.0 mm 0.00 in0.0 mm
04:10 AM 40.5°F4.7°C 38.1°F3.4°C 91% 2.3 mph SSW3.7 kmh SSW 3.5 mph5.6 kmh 30.28 in1025.4 mb - 0.00 in0.0 mm 0.00 in0.0 mm
04:20 AM 40.2°F4.6°C 37.8°F3.2°C 91% 2.3 mph SSW3.7 kmh SSW 3.5 mph5.6 kmh 30.27 in1025.1 mb - 0.00 in0.0 mm 0.00 in0.0 mm
04:30 AM 39.9°F4.4°C 37.5°F3.1°C 91% 2.3 mph SSW3.7 kmh SSW 3.5 mph5.6 kmh 30.27 in1025.1 mb - 0.00 in0.0 mm 0.00 in0.0 mm
04:40 AM 39.7°F4.3°C 37.3°F2.9°C 91% 2.3 mph SSW3.7 kmh SSW 3.5 mph5.6 kmh 30.27 in1025.1 mb - 0.00 in0.0 mm 0.00 in0.0 mm
04:50 AM 39.7°F4.3°C 37.3°F2.9°C 91% 2.3 mph SSW3.7 kmh SSW 3.5 mph5.6 kmh 30.27 in1025.1 mb - 0.00 in0.0 mm 0.00 in0.0 mm
05:00 AM 39.7°F4.3°C 37.3°F2.9°C 91% 2.3 mph SSW3.7 kmh SSW 3.5 mph5.6 kmh 30.27 in1025.1 mb - 0.00 in0.0 mm 0.00 in0.0 mm
05:10 AM 39.7°F4.3°C 37.3°F2.9°C 91% 3.5 mph SSW5.6 kmh SSW 4.6 mph7.4 kmh 30.27 in1025.1 mb - 0.00 in0.0 mm 0.00 in0.0 mm
05:20 AM 39.6°F4.2°C 37.2°F2.9°C 91% 3.5 mph SSW5.6 kmh SSW 3.5 mph5.6 kmh 30.27 in1025.1 mb - 0.00 in0.0 mm 0.00 in0.0 mm
05:30 AM 39.5°F4.2°C 37.1°F2.8°C 91% 3.5 mph SSW5.6 kmh SSW 3.5 mph5.6 kmh 30.26 in1024.7 mb - 0.00 in0.0 mm 0.00 in0.0 mm
05:40 AM 39.3°F4.1°C 36.9°F2.7°C 91% 3.5 mph SW5.6 kmh SW 3.5 mph5.6 kmh 30.27 in1025.1 mb - 0.00 in0.0 mm 0.00 in0.0 mm
05:50 AM 39.1°F3.9°C 36.7°F2.6°C 91% 3.5 mph SW5.6 kmh SW 3.5 mph5.6 kmh 30.27 in1025.1 mb - 0.00 in0.0 mm 0.00 in0.0 mm
06:00 AM 39.0°F3.9°C 36.6°F2.6°C 91% 2.3 mph SW3.7 kmh SW 3.5 mph5.6 kmh 30.27 in1025.1 mb - 0.00 in0.0 mm 0.00 in0.0 mm
06:10 AM 39.0°F3.9°C 36.9°F2.7°C 92% 3.5 mph SSW5.6 kmh SSW 3.5 mph5.6 kmh 30.27 in1025.1 mb - 0.00 in0.0 mm 0.00 in0.0 mm
06:20 AM 39.0°F3.9°C 36.9°F2.7°C 92% 3.5 mph SSW5.6 kmh SSW 4.6 mph7.4 kmh 30.28 in1025.4 mb - 0.00 in0.0 mm 0.00 in0.0 mm
06:30 AM 39.1°F3.9°C 37.0°F2.8°C 92% 3.5 mph SW5.6 kmh SW 3.5 mph5.6 kmh 30.28 in1025.4 mb - 0.00 in0.0 mm 0.00 in0.0 mm
06:40 AM 39.1°F3.9°C 37.0°F2.8°C 92% 3.5 mph SW5.6 kmh SW 4.6 mph7.4 kmh 30.28 in1025.4 mb - 0.00 in0.0 mm 0.00 in0.0 mm
06:50 AM 39.1°F3.9°C 37.0°F2.8°C 92% 3.5 mph SSW5.6 kmh SSW 4.6 mph7.4 kmh 30.28 in1025.4 mb - 0.00 in0.0 mm 0.00 in0.0 mm
07:00 AM 39.1°F3.9°C 37.0°F2.8°C 92% 3.5 mph SSW5.6 kmh SSW 4.6 mph7.4 kmh 30.29 in1025.7 mb - 0.00 in0.0 mm 0.00 in0.0 mm
07:10 AM 39.2°F4.0°C 37.1°F2.8°C 92% 3.5 mph SSW5.6 kmh SSW 4.6 mph7.4 kmh 30.29 in1025.7 mb - 0.01 in0.3 mm 0.01 in0.3 mm
07:20 AM 39.4°F4.1°C 37.3°F2.9°C 92% 3.5 mph SSW5.6 kmh SSW 4.6 mph7.4 kmh 30.29 in1025.7 mb - 0.00 in0.0 mm 0.01 in0.3 mm
07:30 AM 39.5°F4.2°C 37.4°F3.0°C 92% 4.6 mph SW7.4 kmh SW 5.8 mph9.3 kmh 30.30 in1026.1 mb - 0.00 in0.0 mm 0.01 in0.3 mm
07:40 AM 39.6°F4.2°C 37.5°F3.1°C 92% 4.6 mph SSW7.4 kmh SSW 6.9 mph11.1 kmh 30.29 in1025.7 mb - 0.00 in0.0 mm 0.01 in0.3 mm
07:50 AM 39.6°F4.2°C 37.5°F3.1°C 92% 5.8 mph S9.3 kmh S 8.1 mph13.0 kmh 30.29 in1025.7 mb - 0.00 in0.0 mm 0.01 in0.3 mm
08:00 AM 39.7°F4.3°C 37.6°F3.1°C 92% 4.6 mph SSW7.4 kmh SSW 4.6 mph7.4 kmh 30.29 in1025.7 mb - 0.01 in0.3 mm 0.02 in0.5 mm
08:10 AM 39.7°F4.3°C 37.6°F3.1°C 92% 5.8 mph SSW9.3 kmh SSW 5.8 mph9.3 kmh 30.29 in1025.7 mb - 0.00 in0.0 mm 0.02 in0.5 mm
08:20 AM 39.8°F4.3°C 37.9°F3.3°C 93% 4.6 mph SSW7.4 kmh SSW 5.8 mph9.3 kmh 30.29 in1025.7 mb - 0.00 in0.0 mm 0.02 in0.5 mm
08:30 AM 40.0°F4.4°C 38.1°F3.4°C 93% 4.6 mph SSW7.4 kmh SSW 5.8 mph9.3 kmh 30.29 in1025.7 mb - 0.00 in0.0 mm 0.02 in0.5 mm
08:40 AM 40.2°F4.6°C 38.3°F3.5°C 93% 4.6 mph S7.4 kmh S 6.9 mph11.1 kmh 30.29 in1025.7 mb - 0.00 in0.0 mm 0.02 in0.5 mm
08:50 AM 40.5°F4.7°C 38.7°F3.7°C 93% 4.6 mph SSW7.4 kmh SSW 4.6 mph7.4 kmh 30.29 in1025.7 mb - 0.00 in0.0 mm 0.02 in0.5 mm
09:00 AM 40.7°F4.8°C 38.8°F3.8°C 93% 3.5 mph SSW5.6 kmh SSW 3.5 mph5.6 kmh 30.29 in1025.7 mb - 0.00 in0.0 mm 0.02 in0.5 mm
09:10 AM 41.0°F5.0°C 39.2°F4.0°C 93% 3.5 mph SSW5.6 kmh SSW 3.5 mph5.6 kmh 30.29 in1025.7 mb - 0.00 in0.0 mm 0.02 in0.5 mm
09:20 AM 41.5°F5.3°C 39.6°F4.2°C 93% 5.8 mph SSW9.3 kmh SSW 6.9 mph11.1 kmh 30.29 in1025.7 mb - 0.00 in0.0 mm 0.02 in0.5 mm
09:30 AM 41.8°F5.4°C 39.9°F4.4°C 93% 3.5 mph SSW5.6 kmh SSW 4.6 mph7.4 kmh 30.29 in1025.7 mb - 0.00 in0.0 mm 0.02 in0.5 mm
09:40 AM 42.1°F5.6°C 40.2°F4.6°C 93% 4.6 mph SSW7.4 kmh SSW 5.8 mph9.3 kmh 30.30 in1026.1 mb - 0.00 in0.0 mm 0.02 in0.5 mm
09:50 AM 42.4°F5.8°C 40.8°F4.9°C 94% 4.6 mph SSW7.4 kmh SSW 5.8 mph9.3 kmh 30.30 in1026.1 mb - 0.00 in0.0 mm 0.02 in0.5 mm
10:00 AM 42.9°F6.1°C 41.0°F5.0°C 93% 5.8 mph SSW9.3 kmh SSW 6.9 mph11.1 kmh 30.30 in1026.1 mb - 0.00 in0.0 mm 0.02 in0.5 mm
10:10 AM 43.5°F6.4°C 41.9°F5.5°C 94% 5.8 mph SSW9.3 kmh SSW 9.2 mph14.8 kmh 30.30 in1026.1 mb - 0.00 in0.0 mm 0.02 in0.5 mm
10:20 AM 44.3°F6.8°C 42.7°F5.9°C 94% 4.6 mph SSW7.4 kmh SSW 5.8 mph9.3 kmh 30.30 in1026.1 mb - 0.00 in0.0 mm 0.02 in0.5 mm
10:30 AM 44.5°F6.9°C 42.9°F6.1°C 94% 3.5 mph SSW5.6 kmh SSW 3.5 mph5.6 kmh 30.30 in1026.1 mb - 0.00 in0.0 mm 0.02 in0.5 mm
10:40 AM 44.9°F7.2°C 43.3°F6.3°C 94% 4.6 mph SSW7.4 kmh SSW 5.8 mph9.3 kmh 30.29 in1025.7 mb - 0.00 in0.0 mm 0.02 in0.5 mm
10:50 AM 45.5°F7.5°C 43.9°F6.6°C 94% 6.9 mph S11.1 kmh S 11.5 mph18.5 kmh 30.29 in1025.7 mb - 0.00 in0.0 mm 0.02 in0.5 mm
11:00 AM 46.7°F8.2°C 45.0°F7.2°C 94% 5.8 mph S9.3 kmh S 10.4 mph16.7 kmh 30.29 in1025.7 mb - 0.00 in0.0 mm 0.02 in0.5 mm
11:10 AM 47.4°F8.6°C 45.7°F7.6°C 94% 6.9 mph S11.1 kmh S 9.2 mph14.8 kmh 30.29 in1025.7 mb - 0.00 in0.0 mm 0.02 in0.5 mm
11:20 AM 48.1°F8.9°C 46.4°F8.0°C 94% 5.8 mph SSW9.3 kmh SSW 9.2 mph14.8 kmh 30.28 in1025.4 mb - 0.00 in0.0 mm 0.02 in0.5 mm
11:30 AM 49.0°F9.4°C 47.1°F8.4°C 93% 8.1 mph S13.0 kmh S 12.7 mph20.4 kmh 30.28 in1025.4 mb - 0.00 in0.0 mm 0.02 in0.5 mm
11:40 AM 49.6°F9.8°C 47.7°F8.7°C 93% 6.9 mph S11.1 kmh S 11.5 mph18.5 kmh 30.27 in1025.1 mb - 0.00 in0.0 mm 0.02 in0.5 mm
11:50 AM 50.0°F10.0°C 47.8°F8.8°C 92% 8.1 mph S13.0 kmh S 10.4 mph16.7 kmh 30.27 in1025.1 mb - 0.00 in0.0 mm 0.02 in0.5 mm
12:00 PM 50.5°F10.3°C 48.0°F8.9°C 91% 3.5 mph S5.6 kmh S 4.6 mph7.4 kmh 30.27 in1025.1 mb - 0.00 in0.0 mm 0.02 in0.5 mm
12:10 PM 51.2°F10.7°C 48.3°F9.1°C 90% 4.6 mph S7.4 kmh S 8.1 mph13.0 kmh 30.26 in1024.7 mb - 0.00 in0.0 mm 0.02 in0.5 mm
12:20 PM 51.7°F10.9°C 48.3°F9.1°C 88% 8.1 mph SSW13.0 kmh SSW 9.2 mph14.8 kmh 30.26 in1024.7 mb - 0.00 in0.0 mm 0.02 in0.5 mm
12:30 PM 52.4°F11.3°C 48.6°F9.2°C 87% 5.8 mph SSW9.3 kmh SSW 6.9 mph11.1 kmh 30.25 in1024.4 mb - 0.00 in0.0 mm 0.02 in0.5 mm
12:40 PM 53.0°F11.7°C 48.6°F9.2°C 85% 3.5 mph SSW5.6 kmh SSW 5.8 mph9.3 kmh 30.24 in1024.0 mb - 0.00 in0.0 mm 0.02 in0.5 mm
12:50 PM 53.7°F12.1°C 49.0°F9.4°C 84% 6.9 mph SSW11.1 kmh SSW 9.2 mph14.8 kmh 30.24 in1024.0 mb - 0.00 in0.0 mm 0.02 in0.5 mm
01:00 PM 54.3°F12.4°C 49.2°F9.6°C 83% 6.9 mph SSW11.1 kmh SSW 8.1 mph13.0 kmh 30.24 in1024.0 mb - 0.00 in0.0 mm 0.02 in0.5 mm
01:10 PM 54.4°F12.4°C 48.7°F9.3°C 81% 6.9 mph S11.1 kmh S 8.1 mph13.0 kmh 30.24 in1024.0 mb - 0.00 in0.0 mm 0.02 in0.5 mm
01:20 PM 54.1°F12.3°C 48.4°F9.1°C 81% 4.6 mph S7.4 kmh S 6.9 mph11.1 kmh 30.24 in1024.0 mb - 0.00 in0.0 mm 0.02 in0.5 mm
01:30 PM 54.4°F12.4°C 49.0°F9.4°C 82% 5.8 mph SSW9.3 kmh SSW 6.9 mph11.1 kmh 30.23 in1023.7 mb - 0.00 in0.0 mm 0.02 in0.5 mm
01:40 PM 54.6°F12.6°C 48.9°F9.4°C 81% 4.6 mph S7.4 kmh S 6.9 mph11.1 kmh 30.23 in1023.7 mb - 0.00 in0.0 mm 0.02 in0.5 mm
01:50 PM 54.5°F12.5°C 48.5°F9.2°C 80% 2.3 mph SSW3.7 kmh SSW 3.5 mph5.6 kmh 30.23 in1023.7 mb - 0.00 in0.0 mm 0.02 in0.5 mm
02:00 PM 54.4°F12.4°C 48.4°F9.1°C 80% 3.5 mph SW5.6 kmh SW 6.9 mph11.1 kmh 30.22 in1023.4 mb - 0.00 in0.0 mm 0.02 in0.5 mm
02:10 PM 54.2°F12.3°C 48.2°F9.0°C 80% 4.6 mph SSW7.4 kmh SSW 5.8 mph9.3 kmh 30.22 in1023.4 mb - 0.00 in0.0 mm 0.02 in0.5 mm
02:20 PM 54.0°F12.2°C 47.6°F8.7°C 79% 1.2 mph SW1.9 kmh SW 2.3 mph3.7 kmh 30.22 in1023.4 mb - 0.00 in0.0 mm 0.02 in0.5 mm
02:30 PM 53.7°F12.1°C 47.7°F8.7°C 80% 2.3 mph SW3.7 kmh SW 2.3 mph3.7 kmh 30.22 in1023.4 mb - 0.01 in0.3 mm 0.03 in0.8 mm
02:40 PM 53.4°F11.9°C 47.4°F8.6°C 80% 1.2 mph SW1.9 kmh SW 2.3 mph3.7 kmh 30.22 in1023.4 mb - 0.03 in0.8 mm 0.06 in1.5 mm
02:50 PM 52.8°F11.6°C 47.5°F8.6°C 82% 1.2 mph S1.9 kmh S 2.3 mph3.7 kmh 30.22 in1023.4 mb - 0.01 in0.3 mm 0.06 in1.5 mm
03:00 PM 52.7°F11.5°C 47.7°F8.7°C 83% 2.3 mph SW3.7 kmh SW 3.5 mph5.6 kmh 30.22 in1023.4 mb - 0.01 in0.3 mm 0.07 in1.8 mm
03:10 PM 52.4°F11.3°C 47.7°F8.7°C 84% 3.5 mph SW5.6 kmh SW 5.8 mph9.3 kmh 30.22 in1023.4 mb - 0.00 in0.0 mm 0.07 in1.8 mm
03:20 PM 52.2°F11.2°C 47.8°F8.8°C 85% Calm Calm 1.2 mph1.9 kmh 30.22 in1023.4 mb - 0.00 in0.0 mm 0.07 in1.8 mm
03:30 PM 52.0°F11.1°C 47.6°F8.7°C 85% 2.3 mph SW3.7 kmh SW 3.5 mph5.6 kmh 30.22 in1023.4 mb - 0.00 in0.0 mm 0.07 in1.8 mm
03:40 PM 51.7°F10.9°C 47.3°F8.5°C 85% 1.2 mph SW1.9 kmh SW 3.5 mph5.6 kmh 30.22 in1023.4 mb - 0.00 in0.0 mm 0.07 in1.8 mm
03:50 PM 51.4°F10.8°C 47.0°F8.3°C 85% Calm Calm -- 30.22 in1023.4 mb - 0.00 in0.0 mm 0.07 in1.8 mm
04:00 PM 51.2°F10.7°C 46.8°F8.2°C 85% 2.3 mph SW3.7 kmh SW 3.5 mph5.6 kmh 30.23 in1023.7 mb - 0.00 in0.0 mm 0.07 in1.8 mm
04:10 PM 51.4°F10.8°C 47.7°F8.7°C 87% 2.3 mph SW3.7 kmh SW 3.5 mph5.6 kmh 30.23 in1023.7 mb - 0.00 in0.0 mm 0.07 in1.8 mm
04:20 PM 51.5°F10.8°C 47.8°F8.8°C 87% 3.5 mph S5.6 kmh S 3.5 mph5.6 kmh 30.23 in1023.7 mb - 0.00 in0.0 mm 0.07 in1.8 mm
04:30 PM 51.5°F10.8°C 47.8°F8.8°C 87% Calm Calm -- 30.23 in1023.7 mb - 0.00 in0.0 mm 0.07 in1.8 mm
04:40 PM 51.3°F10.7°C 47.6°F8.7°C 87% Calm Calm -- 30.23 in1023.7 mb - 0.00 in0.0 mm 0.07 in1.8 mm
04:50 PM 51.1°F10.6°C 47.0°F8.3°C 86% Calm Calm -- 30.23 in1023.7 mb - 0.00 in0.0 mm 0.07 in1.8 mm
05:00 PM 50.7°F10.4°C 46.7°F8.2°C 86% Calm Calm -- 30.23 in1023.7 mb - 0.00 in0.0 mm 0.07 in1.8 mm
05:10 PM 50.4°F10.2°C 46.4°F8.0°C 86% Calm Calm -- 30.24 in1024.0 mb - 0.00 in0.0 mm 0.07 in1.8 mm
05:20 PM 50.1°F10.1°C 46.1°F7.8°C 86% Calm Calm -- 30.24 in1024.0 mb - 0.00 in0.0 mm 0.07 in1.8 mm
05:30 PM 49.6°F9.8°C 45.3°F7.4°C 85% Calm Calm -- 30.24 in1024.0 mb - 0.00 in0.0 mm 0.07 in1.8 mm
05:40 PM 49.2°F9.6°C 44.9°F7.2°C 85% Calm Calm -- 30.24 in1024.0 mb - 0.00 in0.0 mm 0.07 in1.8 mm
05:50 PM 48.6°F9.2°C 44.3°F6.8°C 85% Calm Calm -- 30.24 in1024.0 mb - 0.00 in0.0 mm 0.07 in1.8 mm
06:00 PM 48.2°F9.0°C 43.9°F6.6°C 85% Calm Calm -- 30.24 in1024.0 mb - 0.00 in0.0 mm 0.07 in1.8 mm
06:10 PM 47.9°F8.8°C 43.9°F6.6°C 86% Calm Calm -- 30.24 in1024.0 mb - 0.00 in0.0 mm 0.07 in1.8 mm
06:20 PM 47.8°F8.8°C 43.8°F6.6°C 86% Calm Calm -- 30.24 in1024.0 mb - 0.00 in0.0 mm 0.07 in1.8 mm
06:30 PM 47.6°F8.7°C 43.9°F6.6°C 87% Calm Calm -- 30.24 in1024.0 mb - 0.00 in0.0 mm 0.07 in1.8 mm
06:40 PM 47.5°F8.6°C 43.8°F6.6°C 87% Calm Calm -- 30.25 in1024.4 mb - 0.00 in0.0 mm 0.07 in1.8 mm
06:50 PM 47.4°F8.6°C 43.7°F6.5°C 87% Calm Calm -- 30.25 in1024.4 mb - 0.00 in0.0 mm 0.07 in1.8 mm
07:00 PM 47.3°F8.5°C 43.9°F6.6°C 88% Calm Calm -- 30.25 in1024.4 mb - 0.00 in0.0 mm 0.07 in1.8 mm
07:10 PM 47.2°F8.4°C 43.8°F6.6°C 88% Calm Calm -- 30.25 in1024.4 mb - 0.00 in0.0 mm 0.07 in1.8 mm
07:20 PM 47.2°F8.4°C 43.8°F6.6°C 88% Calm Calm -- 30.25 in1024.4 mb - 0.00 in0.0 mm 0.07 in1.8 mm
07:30 PM 47.3°F8.5°C 44.2°F6.8°C 89% Calm Calm -- 30.25 in1024.4 mb - 0.00 in0.0 mm 0.07 in1.8 mm
07:40 PM 47.3°F8.5°C 44.2°F6.8°C 89% Calm Calm -- 30.25 in1024.4 mb - 0.00 in0.0 mm 0.07 in1.8 mm
07:50 PM 47.3°F8.5°C 44.2°F6.8°C 89% Calm Calm -- 30.25 in1024.4 mb - 0.00 in0.0 mm 0.07 in1.8 mm
08:00 PM 47.3°F8.5°C 44.2°F6.8°C 89% Calm Calm -- 30.25 in1024.4 mb - 0.00 in0.0 mm 0.07 in1.8 mm
08:10 PM 47.2°F8.4°C 44.1°F6.7°C 89% Calm Calm -- 30.25 in1024.4 mb - 0.00 in0.0 mm 0.07 in1.8 mm
08:20 PM 47.2°F8.4°C 44.4°F6.9°C 90% Calm Calm -- 30.25 in1024.4 mb - 0.00 in0.0 mm 0.07 in1.8 mm
08:30 PM 47.1°F8.4°C 44.3°F6.8°C 90% Calm Calm -- 30.25 in1024.4 mb - 0.00 in0.0 mm 0.07 in1.8 mm
08:40 PM 46.8°F8.2°C 43.7°F6.5°C 89% Calm Calm -- 30.26 in1024.7 mb - 0.00 in0.0 mm 0.07 in1.8 mm
08:50 PM 46.5°F8.1°C 43.4°F6.3°C 89% Calm Calm -- 30.26 in1024.7 mb - 0.00 in0.0 mm 0.07 in1.8 mm
09:00 PM 46.2°F7.9°C 43.4°F6.3°C 90% Calm Calm -- 30.26 in1024.7 mb - 0.00 in0.0 mm 0.07 in1.8 mm
09:10 PM 45.9°F7.7°C 42.8°F6.0°C 89% Calm Calm -- 30.26 in1024.7 mb - 0.00 in0.0 mm 0.07 in1.8 mm
09:20 PM 45.6°F7.6°C 42.8°F6.0°C 90% Calm Calm -- 30.26 in1024.7 mb - 0.00 in0.0 mm 0.07 in1.8 mm
09:30 PM 45.3°F7.4°C 42.2°F5.7°C 89% Calm Calm -- 30.26 in1024.7 mb - 0.00 in0.0 mm 0.07 in1.8 mm
09:40 PM 45.0°F7.2°C 42.2°F5.7°C 90% Calm Calm -- 30.26 in1024.7 mb - 0.00 in0.0 mm 0.07 in1.8 mm
09:50 PM 44.8°F7.1°C 42.0°F5.6°C 90% Calm Calm -- 30.26 in1024.7 mb - 0.00 in0.0 mm 0.07 in1.8 mm
10:00 PM 44.6°F7.0°C 41.8°F5.4°C 90% Calm Calm -- 30.26 in1024.7 mb - 0.00 in0.0 mm 0.07 in1.8 mm
10:10 PM 44.4°F6.9°C 41.7°F5.4°C 90% Calm Calm -- 30.27 in1025.1 mb - 0.00 in0.0 mm 0.07 in1.8 mm
10:20 PM 44.3°F6.8°C 41.8°F5.4°C 91% Calm Calm -- 30.26 in1024.7 mb - 0.00 in0.0 mm 0.07 in1.8 mm
10:30 PM 44.3°F6.8°C 41.8°F5.4°C 91% Calm Calm -- 30.26 in1024.7 mb - 0.00 in0.0 mm 0.07 in1.8 mm
10:40 PM 44.2°F6.8°C 41.7°F5.4°C 91% Calm Calm -- 30.26 in1024.7 mb - 0.00 in0.0 mm 0.07 in1.8 mm
10:50 PM 44.0°F6.7°C 41.5°F5.3°C 91% Calm Calm -- 30.26 in1024.7 mb - 0.00 in0.0 mm 0.07 in1.8 mm
11:00 PM 43.9°F6.6°C 41.4°F5.2°C 91% Calm Calm -- 30.26 in1024.7 mb - 0.00 in0.0 mm 0.07 in1.8 mm
11:10 PM 43.8°F6.6°C 41.3°F5.2°C 91% Calm Calm -- 30.26 in1024.7 mb - 0.00 in0.0 mm 0.07 in1.8 mm
11:20 PM 44.0°F6.7°C 41.8°F5.4°C 92% Calm Calm -- 30.26 in1024.7 mb - 0.00 in0.0 mm 0.07 in1.8 mm
11:30 PM 44.1°F6.7°C 41.9°F5.5°C 92% Calm Calm -- 30.27 in1025.1 mb - 0.00 in0.0 mm 0.07 in1.8 mm
11:40 PM 44.2°F6.8°C 42.0°F5.6°C 92% Calm Calm -- 30.27 in1025.1 mb - 0.00 in0.0 mm 0.07 in1.8 mm
11:50 PM 44.2°F6.8°C 42.0°F5.6°C 92% Calm Calm -- 30.27 in1025.1 mb - 0.00 in0.0 mm 0.07 in1.8 mm